Time;durP1;ratioP1;P1;durP2;ratioP2;P2;SDS_P1;SDS_P2;PMS_P1;PMS_P2;Temp;Humidity;BMP_temperature;BMP_pressure;BME280_temperature;BME280_humidity;BME280_pressure;Samples;Min_cycle;Max_cycle;Signal;HPM_P1;HPM_P2
2022/08/14 00:00:42;;;;;;;7.07;6.37;;;;;;;;;;5111047;28;20233;-79
2022/08/14 00:03:18;;;;;;;8.23;7.53;;;;;;;;;;5110689;28;20202;-79
2022/08/14 00:05:45;;;;;;;8.43;7.53;;;;;;;;;;5111122;28;20203;-79
2022/08/14 00:08:12;;;;;;;12.43;7.73;;;;;;;;;;5110699;28;20653;-79
2022/08/14 00:10:39;;;;;;;7.97;7.17;;;;;;;;;;5110873;28;20223;-80
2022/08/14 00:13:07;;;;;;;9.93;8.10;;;;;;;;;;5110851;28;20230;-80
2022/08/14 00:15:38;;;;;;;8.07;7.20;;;;;;;;;;5110865;28;20227;-79
2022/08/14 00:18:06;;;;;;;9.13;7.50;;;;;;;;;;5111119;28;20227;-80
2022/08/14 00:20:35;;;;;;;8.17;7.47;;;;;;;;;;5110598;28;20195;-79
2022/08/14 00:23:04;;;;;;;8.93;8.03;;;;;;;;;;5110873;28;20211;-79
2022/08/14 00:25:31;;;;;;;8.70;7.90;;;;;;;;;;5110661;28;20196;-79
2022/08/14 00:27:58;;;;;;;8.20;7.50;;;;;;;;;;5110805;28;20231;-78
2022/08/14 00:30:25;;;;;;;7.87;7.03;;;;;;;;;;5110424;28;20570;-79
2022/08/14 00:32:53;;;;;;;7.60;6.80;;;;;;;;;;5110728;28;20195;-79
2022/08/14 00:35:20;;;;;;;11.57;7.33;;;;;;;;;;5110519;28;20589;-79
2022/08/14 00:37:47;;;;;;;7.73;6.93;;;;;;;;;;5110876;28;20581;-79
2022/08/14 00:40:16;;;;;;;7.33;6.60;;;;;;;;;;5110206;28;20665;-79
2022/08/14 00:42:43;;;;;;;7.90;7.10;;;;;;;;;;5110867;28;20203;-79
2022/08/14 00:45:12;;;;;;;8.80;8.00;;;;;;;;;;5111604;28;20195;-79
2022/08/14 00:47:39;;;;;;;8.00;7.30;;;;;;;;;;5114591;28;20199;-79
2022/08/14 00:50:10;;;;;;;7.70;7.00;;;;;;;;;;5114109;28;20215;-79
2022/08/14 00:52:37;;;;;;;7.73;7.13;;;;;;;;;;5114442;28;20199;-79
2022/08/14 00:55:05;;;;;;;6.97;6.37;;;;;;;;;;5114262;28;20577;-81
2022/08/14 00:57:33;;;;;;;8.37;7.57;;;;;;;;;;5114746;28;20574;-79
2022/08/14 01:00:00;;;;;;;8.93;7.50;;;;;;;;;;5114157;28;20226;-79
2022/08/14 01:02:27;;;;;;;7.63;6.97;;;;;;;;;;5114330;28;20199;-79
2022/08/14 01:04:57;;;;;;;7.47;6.87;;;;;;;;;;5114199;28;20191;-79
2022/08/14 01:07:28;;;;;;;8.00;7.20;;;;;;;;;;5113884;28;20282;-79
2022/08/14 01:10:00;;;;;;;7.60;6.90;;;;;;;;;;5113710;28;20195;-81
2022/08/14 01:12:27;;;;;;;8.37;7.40;;;;;;;;;;5114147;28;20203;-79
2022/08/14 01:14:55;;;;;;;7.53;6.73;;;;;;;;;;5113682;28;20187;-79
2022/08/14 01:17:22;;;;;;;9.43;8.03;;;;;;;;;;5113732;28;20206;-79
2022/08/14 01:22:35;;;;;;;9.50;7.97;;;;;;;;;;5112606;28;20256;-79
2022/08/14 01:25:02;;;;;;;17.00;8.37;;;;;;;;;;5113491;28;20234;-79
2022/08/14 01:27:29;;;;;;;8.10;7.30;;;;;;;;;;5113870;28;20200;-79
2022/08/14 01:29:58;;;;;;;9.10;8.30;;;;;;;;;;5099518;28;20202;-79
2022/08/14 01:32:25;;;;;;;7.90;7.03;;;;;;;;;;5113275;28;20195;-79
2022/08/14 01:34:55;;;;;;;9.73;7.90;;;;;;;;;;5098389;28;20207;-79
2022/08/14 01:37:24;;;;;;;8.37;7.50;;;;;;;;;;5113391;28;20203;-79
2022/08/14 01:39:52;;;;;;;9.27;8.33;;;;;;;;;;5113468;28;20279;-79
2022/08/14 01:42:20;;;;;;;8.93;8.03;;;;;;;;;;5113690;28;20199;-79
2022/08/14 01:44:54;;;;;;;9.50;7.83;;;;;;;;;;5113995;28;20222;-80
2022/08/14 01:47:20;;;;;;;8.67;7.80;;;;;;;;;;5112917;28;20199;-79
2022/08/14 01:49:48;;;;;;;8.90;8.07;;;;;;;;;;5113090;28;20203;-79
2022/08/14 01:52:16;;;;;;;7.73;6.83;;;;;;;;;;5099277;28;20250;-79
2022/08/14 01:54:43;;;;;;;8.90;8.00;;;;;;;;;;5112950;28;20680;-79
2022/08/14 01:57:12;;;;;;;8.53;7.53;;;;;;;;;;5112300;28;20200;-79
2022/08/14 01:59:42;;;;;;;7.47;6.87;;;;;;;;;;5112515;28;20206;-79
2022/08/14 02:02:13;;;;;;;8.57;7.57;;;;;;;;;;5113041;28;20249;-79
2022/08/14 02:04:40;;;;;;;8.37;7.50;;;;;;;;;;5112779;28;20573;-79
2022/08/14 02:07:09;;;;;;;8.77;7.97;;;;;;;;;;5113291;28;20614;-79
2022/08/14 02:09:37;;;;;;;8.13;7.43;;;;;;;;;;5112748;28;20287;-79
2022/08/14 02:12:06;;;;;;;8.63;7.83;;;;;;;;;;5112268;28;20758;-79
2022/08/14 02:14:35;;;;;;;8.20;7.40;;;;;;;;;;5112712;28;20188;-79
2022/08/14 02:17:02;;;;;;;8.73;7.93;;;;;;;;;;5112495;28;20558;-79
2022/08/14 02:19:33;;;;;;;11.40;8.67;;;;;;;;;;5112599;28;20664;-79
2022/08/14 02:22:01;;;;;;;8.57;7.67;;;;;;;;;;5112647;28;20282;-79
2022/08/14 02:24:29;;;;;;;8.40;7.60;;;;;;;;;;5112462;28;20556;-79
2022/08/14 02:26:58;;;;;;;8.90;8.00;;;;;;;;;;5112375;28;20199;-79
2022/08/14 02:29:27;;;;;;;8.03;7.37;;;;;;;;;;5112501;28;20199;-79
2022/08/14 02:31:57;;;;;;;8.20;7.40;;;;;;;;;;5105786;28;20220;-79
2022/08/14 02:34:28;;;;;;;8.67;7.87;;;;;;;;;;5103550;28;20742;-78
2022/08/14 02:36:58;;;;;;;9.27;7.37;;;;;;;;;;5112135;28;20187;-79
2022/08/14 02:39:25;;;;;;;8.17;7.33;;;;;;;;;;5112129;28;20282;-79
2022/08/14 02:41:52;;;;;;;9.63;8.30;;;;;;;;;;5111813;28;20200;-79
2022/08/14 02:44:20;;;;;;;8.33;7.63;;;;;;;;;;5112026;28;20213;-79
2022/08/14 02:46:47;;;;;;;8.17;7.47;;;;;;;;;;5112009;28;20754;-79
2022/08/14 02:49:15;;;;;;;8.93;8.07;;;;;;;;;;5111993;28;20222;-79
2022/08/14 02:51:42;;;;;;;8.90;8.00;;;;;;;;;;5111651;28;20697;-79
2022/08/14 02:54:10;;;;;;;8.50;7.80;;;;;;;;;;5112047;28;20199;-79
2022/08/14 02:56:37;;;;;;;8.73;7.90;;;;;;;;;;5112205;28;20191;-79
2022/08/14 02:59:05;;;;;;;9.17;8.27;;;;;;;;;;5111795;28;20276;-79
2022/08/14 03:01:33;;;;;;;8.97;8.00;;;;;;;;;;5111749;28;20226;-79
2022/08/14 03:04:00;;;;;;;8.03;7.30;;;;;;;;;;5096768;28;20269;-79
2022/08/14 03:06:28;;;;;;;8.43;7.63;;;;;;;;;;5111675;28;20191;-79
2022/08/14 03:08:56;;;;;;;9.63;8.73;;;;;;;;;;5111398;28;20196;-79
2022/08/14 03:11:22;;;;;;;8.70;7.57;;;;;;;;;;5111683;28;20226;-79
2022/08/14 03:13:51;;;;;;;8.67;7.33;;;;;;;;;;5111560;28;20203;-79
2022/08/14 03:16:20;;;;;;;9.57;8.67;;;;;;;;;;5111297;28;20222;-79
2022/08/14 03:18:52;;;;;;;8.40;7.50;;;;;;;;;;5111489;28;20195;-79
2022/08/14 03:21:20;;;;;;;7.83;7.13;;;;;;;;;;5111254;28;20555;-79
2022/08/14 03:23:49;;;;;;;9.03;7.57;;;;;;;;;;5111704;28;20194;-79
2022/08/14 03:26:18;;;;;;;9.20;8.40;;;;;;;;;;5111203;28;20231;-79
2022/08/14 03:28:47;;;;;;;8.50;7.80;;;;;;;;;;5111386;28;20198;-79
2022/08/14 03:31:15;;;;;;;11.40;7.87;;;;;;;;;;5098147;28;20223;-79
2022/08/14 03:33:42;;;;;;;9.40;8.50;;;;;;;;;;5111390;28;20187;-79
2022/08/14 03:36:14;;;;;;;9.57;7.53;;;;;;;;;;5111744;28;20223;-79
2022/08/14 03:38:42;;;;;;;9.37;8.47;;;;;;;;;;5111526;28;20268;-79
2022/08/14 03:41:15;;;;;;;9.47;8.40;;;;;;;;;;5111126;28;20234;-80
2022/08/14 03:43:42;;;;;;;9.03;8.07;;;;;;;;;;5110882;28;20673;-79
2022/08/14 03:46:10;;;;;;;8.90;8.10;;;;;;;;;;5110891;28;20734;-79
2022/08/14 03:48:37;;;;;;;8.37;7.50;;;;;;;;;;5111158;28;20282;-79
2022/08/14 03:51:05;;;;;;;12.40;8.00;;;;;;;;;;5110856;28;20276;-79
2022/08/14 03:53:34;;;;;;;9.27;8.17;;;;;;;;;;5098100;28;20208;-79
2022/08/14 03:56:01;;;;;;;9.03;8.23;;;;;;;;;;5110956;28;20211;-79
2022/08/14 03:58:31;;;;;;;8.33;7.60;;;;;;;;;;5111159;28;20199;-79
2022/08/14 04:00:58;;;;;;;8.43;7.57;;;;;;;;;;5111236;28;20226;-79
2022/08/14 04:03:25;;;;;;;8.40;7.20;;;;;;;;;;5110933;28;20195;-79
2022/08/14 04:05:52;;;;;;;8.70;7.80;;;;;;;;;;5111526;28;20214;-79
2022/08/14 04:08:19;;;;;;;9.10;8.17;;;;;;;;;;5111177;28;20236;-79
2022/08/14 04:10:46;;;;;;;8.40;7.67;;;;;;;;;;5110629;28;20199;-79
2022/08/14 04:13:15;;;;;;;16.23;9.07;;;;;;;;;;5110841;28;20195;-79
2022/08/14 04:15:44;;;;;;;8.73;7.87;;;;;;;;;;5111135;28;20196;-79
2022/08/14 04:18:11;;;;;;;9.43;8.50;;;;;;;;;;5110581;28;20215;-80
2022/08/14 04:20:39;;;;;;;9.73;8.83;;;;;;;;;;5112535;28;20580;-79
2022/08/14 04:23:06;;;;;;;8.40;7.70;;;;;;;;;;5114682;28;20234;-79
2022/08/14 04:25:35;;;;;;;9.37;8.57;;;;;;;;;;5115009;28;20230;-79
2022/08/14 04:28:02;;;;;;;10.43;7.77;;;;;;;;;;5114788;28;20253;-79
2022/08/14 04:30:29;;;;;;;9.87;8.87;;;;;;;;;;5114686;28;20753;-79
2022/08/14 04:32:57;;;;;;;9.40;8.43;;;;;;;;;;5114711;28;20225;-79
2022/08/14 04:35:25;;;;;;;8.80;7.53;;;;;;;;;;5114659;28;20219;-79
2022/08/14 04:43:38;;;;;;;9.90;7.83;;;;;;;;;;5114410;28;20202;-79
2022/08/14 04:46:06;;;;;;;10.60;9.40;;;;;;;;;;5114499;28;20222;-79
2022/08/14 04:48:34;;;;;;;10.07;8.33;;;;;;;;;;5114143;28;20583;-80
2022/08/14 04:51:02;;;;;;;9.37;8.47;;;;;;;;;;5114039;28;20286;-79
2022/08/14 04:53:30;;;;;;;9.73;8.37;;;;;;;;;;5114130;28;20204;-79
2022/08/14 04:55:57;;;;;;;10.40;8.30;;;;;;;;;;5113855;28;20187;-79
2022/08/14 04:58:26;;;;;;;8.33;7.57;;;;;;;;;;5114436;28;20200;-79
2022/08/14 05:00:55;;;;;;;10.33;9.00;;;;;;;;;;5114110;28;20223;-79
2022/08/14 05:03:24;;;;;;;9.63;8.63;;;;;;;;;;5113828;28;20682;-79
2022/08/14 05:05:53;;;;;;;8.63;7.83;;;;;;;;;;5114448;28;20530;-79
2022/08/14 05:08:21;;;;;;;8.60;7.80;;;;;;;;;;5113920;28;20211;-79
2022/08/14 05:10:50;;;;;;;11.87;7.90;;;;;;;;;;5114052;28;20195;-78
2022/08/14 05:13:18;;;;;;;9.63;8.20;;;;;;;;;;5113441;28;20223;-79
2022/08/14 05:15:45;;;;;;;8.63;7.73;;;;;;;;;;5113724;28;20203;-79
2022/08/14 05:18:14;;;;;;;9.73;7.80;;;;;;;;;;5113713;28;20209;-79
2022/08/14 05:20:44;;;;;;;9.43;8.63;;;;;;;;;;5113958;28;20195;-79
2022/08/14 05:23:14;;;;;;;9.40;8.50;;;;;;;;;;5113532;28;20199;-78
2022/08/14 05:25:40;;;;;;;11.13;8.73;;;;;;;;;;5113478;28;20667;-79
2022/08/14 05:28:11;;;;;;;9.63;7.80;;;;;;;;;;5099160;28;20210;-79
2022/08/14 05:30:38;;;;;;;7.67;6.97;;;;;;;;;;5113499;28;20680;-80
2022/08/14 05:33:05;;;;;;;10.00;8.47;;;;;;;;;;5113478;28;20226;-79
2022/08/14 05:35:32;;;;;;;10.07;7.70;;;;;;;;;;5113831;28;20211;-79
2022/08/14 05:38:00;;;;;;;8.10;7.40;;;;;;;;;;5113199;28;20195;-81
2022/08/14 05:40:28;;;;;;;7.90;7.23;;;;;;;;;;5113591;28;20213;-79
2022/08/14 05:42:54;;;;;;;9.37;8.60;;;;;;;;;;5113137;28;20191;-80
2022/08/14 05:45:21;;;;;;;8.70;7.90;;;;;;;;;;5113274;28;20203;-79
2022/08/14 05:47:48;;;;;;;9.97;8.27;;;;;;;;;;5113773;28;20207;-79
2022/08/14 05:50:15;;;;;;;10.63;8.07;;;;;;;;;;5113109;28;20617;-79
2022/08/14 05:52:42;;;;;;;11.07;8.03;;;;;;;;;;5112908;28;20223;-79
2022/08/14 05:55:10;;;;;;;10.70;9.60;;;;;;;;;;5113203;28;20615;-79
2022/08/14 05:57:53;;;;;;;9.03;8.13;;;;;;;;;;5113276;28;20282;-79
2022/08/14 06:00:21;;;;;;;8.97;8.17;;;;;;;;;;5113579;28;20251;-79
2022/08/14 06:02:48;;;;;;;8.10;7.40;;;;;;;;;;5112838;28;20195;-79
2022/08/14 06:05:15;;;;;;;8.70;7.90;;;;;;;;;;5112947;28;20214;-79
2022/08/14 06:07:42;;;;;;;10.63;8.17;;;;;;;;;;5112750;28;20200;-80
2022/08/14 06:10:10;;;;;;;10.47;7.97;;;;;;;;;;5112664;28;20203;-79
2022/08/14 06:12:37;;;;;;;9.30;8.40;;;;;;;;;;5112491;28;20223;-80
2022/08/14 06:15:10;;;;;;;8.57;7.77;;;;;;;;;;5112742;28;20203;-79
2022/08/14 06:17:46;;;;;;;8.77;7.97;;;;;;;;;;5112593;28;20675;-80
2022/08/14 06:20:14;;;;;;;8.33;6.93;;;;;;;;;;5100706;28;20636;-80
2022/08/14 06:22:41;;;;;;;8.73;7.83;;;;;;;;;;5112620;28;20199;-80
2022/08/14 06:25:09;;;;;;;8.37;7.57;;;;;;;;;;5106004;28;20200;-80
2022/08/14 06:27:38;;;;;;;10.33;8.03;;;;;;;;;;5104387;28;20260;-79
2022/08/14 06:30:08;;;;;;;8.87;7.50;;;;;;;;;;5112742;28;20203;-80
2022/08/14 06:32:35;;;;;;;8.53;7.73;;;;;;;;;;5112283;28;20219;-80
2022/08/14 06:35:03;;;;;;;7.47;6.87;;;;;;;;;;5112466;28;20575;-80
2022/08/14 06:37:39;;;;;;;8.03;7.23;;;;;;;;;;5112538;28;20210;-80
2022/08/14 06:40:08;;;;;;;8.27;7.57;;;;;;;;;;5112380;28;20202;-80
2022/08/14 06:42:35;;;;;;;8.50;7.80;;;;;;;;;;5111727;28;20244;-80
2022/08/14 06:45:01;;;;;;;8.70;7.90;;;;;;;;;;5111738;28;20681;-80
2022/08/14 06:47:30;;;;;;;7.70;7.00;;;;;;;;;;5103184;28;20597;-79
2022/08/14 06:49:57;;;;;;;8.40;7.63;;;;;;;;;;5106767;28;20206;-80
2022/08/14 06:52:24;;;;;;;8.73;7.80;;;;;;;;;;5111762;28;20239;-80
2022/08/14 06:54:50;;;;;;;7.17;6.57;;;;;;;;;;5111835;28;20203;-81
2022/08/14 06:57:17;;;;;;;8.50;7.57;;;;;;;;;;5111197;28;20678;-81
2022/08/14 06:59:44;;;;;;;8.50;7.60;;;;;;;;;;5111439;28;20688;-81
2022/08/14 07:07:41;;;;;;;8.63;7.93;;;;;;;;;;5111631;28;20260;-81
2022/08/14 07:10:09;;;;;;;8.73;7.60;;;;;;;;;;5111814;28;20392;-81
2022/08/14 07:12:39;;;;;;;8.57;7.77;;;;;;;;;;5093243;28;20276;-81
2022/08/14 07:15:08;;;;;;;10.73;7.77;;;;;;;;;;5111617;28;20202;-80
2022/08/14 07:17:35;;;;;;;8.10;7.40;;;;;;;;;;5112074;28;20194;-80
2022/08/14 07:20:04;;;;;;;7.90;7.00;;;;;;;;;;5110302;28;20665;-80
2022/08/14 07:22:31;;;;;;;8.10;7.30;;;;;;;;;;5111576;28;20199;-80
2022/08/14 07:24:58;;;;;;;10.03;8.03;;;;;;;;;;5111119;28;20192;-80
2022/08/14 07:27:25;;;;;;;7.80;7.03;;;;;;;;;;5111356;28;20683;-80
2022/08/14 07:29:51;;;;;;;8.43;7.73;;;;;;;;;;5111283;28;20578;-81
2022/08/14 07:32:18;;;;;;;9.03;8.23;;;;;;;;;;5111403;28;20222;-80
2022/08/14 07:34:45;;;;;;;10.83;7.53;;;;;;;;;;5111538;28;20199;-80
2022/08/14 07:37:13;;;;;;;9.57;8.07;;;;;;;;;;5111480;28;20192;-80
2022/08/14 07:39:40;;;;;;;8.43;7.73;;;;;;;;;;5111396;28;20573;-80
2022/08/14 07:42:10;;;;;;;12.07;7.90;;;;;;;;;;5111650;28;20207;-80
2022/08/14 07:44:37;;;;;;;9.27;8.27;;;;;;;;;;5111220;28;20196;-79
2022/08/14 07:47:07;;;;;;;9.83;8.83;;;;;;;;;;5110947;28;20199;-80
2022/08/14 07:49:34;;;;;;;10.37;9.37;;;;;;;;;;5111083;28;20201;-81
2022/08/14 07:52:01;;;;;;;9.33;7.80;;;;;;;;;;5110985;28;20563;-81
2022/08/14 07:54:30;;;;;;;8.47;7.77;;;;;;;;;;5111311;28;20195;-80
2022/08/14 07:57:00;;;;;;;9.43;8.63;;;;;;;;;;5115631;28;20233;-80
2022/08/14 07:59:27;;;;;;;10.70;8.23;;;;;;;;;;5115076;28;20579;-81
2022/08/14 08:01:55;;;;;;;8.97;8.07;;;;;;;;;;5104711;28;20270;-80
2022/08/14 08:04:24;;;;;;;8.97;8.07;;;;;;;;;;5112715;28;20662;-80
2022/08/14 08:06:51;;;;;;;11.43;7.97;;;;;;;;;;5115265;28;20195;-79
2022/08/14 08:09:18;;;;;;;8.03;7.23;;;;;;;;;;5115277;28;20204;-80
2022/08/14 08:11:46;;;;;;;9.03;8.23;;;;;;;;;;5115407;28;20697;-80
2022/08/14 08:14:13;;;;;;;7.33;6.73;;;;;;;;;;5114831;28;20223;-81
2022/08/14 08:16:40;;;;;;;8.70;7.90;;;;;;;;;;5115047;28;20191;-80
2022/08/14 08:19:07;;;;;;;8.97;7.40;;;;;;;;;;5114605;28;20568;-80
2022/08/14 08:21:34;;;;;;;7.87;7.07;;;;;;;;;;5114850;28;20210;-80
2022/08/14 08:24:01;;;;;;;8.77;7.27;;;;;;;;;;5114389;28;20223;-80
2022/08/14 08:26:31;;;;;;;8.97;7.90;;;;;;;;;;5114980;28;20573;-81
2022/08/14 08:29:00;;;;;;;7.83;7.23;;;;;;;;;;5115253;28;20195;-80
2022/08/14 08:31:27;;;;;;;8.82;7.97;;;;;;;;;;5114516;28;20196;-80
2022/08/14 08:33:56;;;;;;;9.47;7.90;;;;;;;;;;5115162;28;20227;-80
2022/08/14 08:36:23;;;;;;;8.27;7.07;;;;;;;;;;5114262;28;20218;-80
2022/08/14 08:38:50;;;;;;;8.48;7.78;;;;;;;;;;5115338;28;20202;-80
2022/08/14 08:41:17;;;;;;;8.40;7.70;;;;;;;;;;5114877;28;20247;-80
2022/08/14 08:43:44;;;;;;;7.93;7.20;;;;;;;;;;5114642;28;20249;-79
2022/08/14 08:46:13;;;;;;;7.47;6.87;;;;;;;;;;5114413;28;20199;-81
2022/08/14 08:48:44;;;;;;;8.30;7.33;;;;;;;;;;5114447;28;20192;-80
2022/08/14 08:51:21;;;;;;;8.90;7.93;;;;;;;;;;5113609;28;20187;-80
2022/08/14 08:53:57;;;;;;;7.97;7.28;;;;;;;;;;5114346;28;20211;-80
2022/08/14 08:56:37;;;;;;;8.70;7.83;;;;;;;;;;5114198;28;20572;-80
2022/08/14 08:59:15;;;;;;;9.37;8.03;;;;;;;;;;5114251;28;20211;-81
2022/08/14 09:01:47;;;;;;;10.63;7.67;;;;;;;;;;5114038;28;20231;-80
2022/08/14 09:04:14;;;;;;;8.23;7.43;;;;;;;;;;5114079;28;20199;-80
2022/08/14 09:06:44;;;;;;;9.87;8.00;;;;;;;;;;5113637;28;20191;-80
2022/08/14 09:09:18;;;;;;;8.60;7.80;;;;;;;;;;5113793;28;20611;-80
2022/08/14 09:11:45;;;;;;;9.90;8.53;;;;;;;;;;5114188;28;20195;-80
2022/08/14 09:14:12;;;;;;;9.70;8.83;;;;;;;;;;5114041;28;20310;-81
2022/08/14 09:16:39;;;;;;;8.70;7.90;;;;;;;;;;5114230;28;20196;-80
2022/08/14 09:19:08;;;;;;;8.05;7.45;;;;;;;;;;5113733;28;20196;-81
2022/08/14 09:21:35;;;;;;;9.10;7.95;;;;;;;;;;5113666;28;20191;-80
2022/08/14 09:24:01;;;;;;;8.55;7.25;;;;;;;;;;5113802;28;20361;-80
2022/08/14 09:26:28;;;;;;;7.53;6.88;;;;;;;;;;5113443;28;20191;-81
2022/08/14 09:28:55;;;;;;;8.23;7.63;;;;;;;;;;5113586;28;20194;-81
2022/08/14 09:31:22;;;;;;;8.45;7.60;;;;;;;;;;5113613;28;20207;-80
2022/08/14 09:34:01;;;;;;;9.30;8.25;;;;;;;;;;5113446;28;20214;-80
2022/08/14 09:36:37;;;;;;;7.60;7.00;;;;;;;;;;5112925;28;20239;-79
2022/08/14 09:39:11;;;;;;;12.23;7.97;;;;;;;;;;5113699;28;20206;-80
2022/08/14 09:41:48;;;;;;;9.70;8.82;;;;;;;;;;5113065;28;20287;-80
2022/08/14 09:44:30;;;;;;;13.18;11.93;;;;;;;;;;5114149;28;20565;-80
2022/08/14 09:46:58;;;;;;;10.30;8.18;;;;;;;;;;5113337;28;20192;-79
2022/08/14 09:49:35;;;;;;;8.23;7.43;;;;;;;;;;5113638;28;21340;-79
2022/08/14 09:52:09;;;;;;;8.00;7.20;;;;;;;;;;5113300;28;20195;-80
2022/08/14 09:54:41;;;;;;;10.13;8.60;;;;;;;;;;5113309;28;20227;-80
2022/08/14 09:57:09;;;;;;;8.48;7.70;;;;;;;;;;5113181;28;20201;-81
2022/08/14 09:59:44;;;;;;;8.43;7.45;;;;;;;;;;5113122;28;20201;-79
2022/08/14 10:02:22;;;;;;;8.43;7.72;;;;;;;;;;5112624;28;20657;-80
2022/08/14 10:05:06;;;;;;;8.23;7.35;;;;;;;;;;5099129;28;20191;-79
2022/08/14 10:07:37;;;;;;;9.23;7.32;;;;;;;;;;5110948;28;20580;-80
2022/08/14 10:10:05;;;;;;;9.27;8.02;;;;;;;;;;5113100;28;20657;-80
2022/08/14 10:12:56;;;;;;;8.18;7.38;;;;;;;;;;5112723;28;20196;-81
2022/08/14 10:15:24;;;;;;;13.68;8.25;;;;;;;;;;5092561;28;20668;-79
2022/08/14 10:18:08;;;;;;;10.10;8.50;;;;;;;;;;5111894;28;20227;-80
2022/08/14 10:20:40;;;;;;;9.02;8.18;;;;;;;;;;5112662;28;20290;-80
2022/08/14 10:23:16;;;;;;;13.50;8.25;;;;;;;;;;5112638;28;20202;-80
2022/08/14 10:25:45;;;;;;;7.72;6.90;;;;;;;;;;5101726;28;20194;-80
2022/08/14 10:28:15;;;;;;;7.63;6.95;;;;;;;;;;5112323;28;20199;-81
2022/08/14 10:30:46;;;;;;;7.40;6.75;;;;;;;;;;5112372;28;20288;-80
2022/08/14 10:33:24;;;;;;;8.57;7.78;;;;;;;;;;5112484;28;20229;-80
2022/08/14 10:35:51;;;;;;;7.53;6.80;;;;;;;;;;5112347;28;20199;-79
2022/08/14 10:38:28;;;;;;;7.78;7.05;;;;;;;;;;5111918;28;20207;-80
2022/08/14 10:40:56;;;;;;;8.27;7.57;;;;;;;;;;5112415;28;20217;-81
2022/08/14 10:43:24;;;;;;;7.50;6.78;;;;;;;;;;5112077;28;20204;-80
2022/08/14 10:46:00;;;;;;;7.82;7.22;;;;;;;;;;5112166;28;20210;-80
2022/08/14 10:48:27;;;;;;;7.93;7.22;;;;;;;;;;5111718;28;20206;-80
2022/08/14 10:50:58;;;;;;;9.80;7.07;;;;;;;;;;5112141;28;20188;-79
2022/08/14 10:53:31;;;;;;;7.63;6.82;;;;;;;;;;5111488;28;20310;-79
2022/08/14 10:55:59;;;;;;;8.02;7.30;;;;;;;;;;5111885;28;20240;-79
2022/08/14 10:58:28;;;;;;;8.43;7.63;;;;;;;;;;5111883;28;20199;-79
2022/08/14 11:00:56;;;;;;;8.32;7.45;;;;;;;;;;5111075;28;20211;-79
2022/08/14 11:03:24;;;;;;;10.65;7.55;;;;;;;;;;5111879;28;20290;-78
2022/08/14 11:05:56;;;;;;;8.03;7.23;;;;;;;;;;5111654;28;20196;-79
2022/08/14 11:08:33;;;;;;;9.43;7.77;;;;;;;;;;5112045;28;20200;-79
2022/08/14 11:11:01;;;;;;;9.00;8.03;;;;;;;;;;5111379;28;20191;-79
2022/08/14 11:13:31;;;;;;;8.87;7.97;;;;;;;;;;5111566;28;20645;-78
2022/08/14 11:16:00;;;;;;;8.50;7.60;;;;;;;;;;5111352;28;20227;-79
2022/08/14 11:18:29;;;;;;;7.97;7.37;;;;;;;;;;5111067;28;20209;-79
2022/08/14 11:20:58;;;;;;;8.17;7.27;;;;;;;;;;5111569;28;20256;-80
2022/08/14 11:23:27;;;;;;;8.17;6.83;;;;;;;;;;5111663;28;20209;-79
2022/08/14 11:25:57;;;;;;;8.53;7.60;;;;;;;;;;5111748;28;20256;-79
2022/08/14 11:28:26;;;;;;;9.17;7.93;;;;;;;;;;5111523;28;20195;-79
2022/08/14 11:30:55;;;;;;;10.97;8.33;;;;;;;;;;5110878;28;20200;-79
2022/08/14 11:33:23;;;;;;;9.00;8.07;;;;;;;;;;5111497;28;20238;-79
2022/08/14 11:35:50;;;;;;;9.10;8.13;;;;;;;;;;5111400;28;20192;-79
2022/08/14 11:38:20;;;;;;;9.27;8.37;;;;;;;;;;5111075;28;20204;-79
2022/08/14 11:40:47;;;;;;;8.70;7.83;;;;;;;;;;5110850;28;20195;-79
2022/08/14 11:43:16;;;;;;;8.50;7.70;;;;;;;;;;5110872;28;20203;-79
2022/08/14 11:45:47;;;;;;;11.23;8.90;;;;;;;;;;5111541;28;20192;-79
2022/08/14 11:48:15;;;;;;;9.20;8.40;;;;;;;;;;5110717;28;20673;-79
2022/08/14 11:50:43;;;;;;;9.17;7.93;;;;;;;;;;5111172;28;20674;-80
2022/08/14 11:53:20;;;;;;;8.47;7.67;;;;;;;;;;5111097;28;20202;-79
2022/08/14 11:55:50;;;;;;;10.17;8.10;;;;;;;;;;5110578;28;20194;-79
2022/08/14 11:58:18;;;;;;;8.87;8.17;;;;;;;;;;5111188;28;20203;-80
2022/08/14 12:00:50;;;;;;;9.40;8.10;;;;;;;;;;5110052;28;20229;-79
2022/08/14 12:03:16;;;;;;;10.97;7.83;;;;;;;;;;5111339;28;20195;-79
2022/08/14 12:05:43;;;;;;;7.80;7.10;;;;;;;;;;5110727;28;20195;-80
2022/08/14 12:08:12;;;;;;;8.47;7.60;;;;;;;;;;5111321;28;20191;-80
2022/08/14 12:10:41;;;;;;;7.47;6.67;;;;;;;;;;5110944;28;20195;-81
2022/08/14 12:13:13;;;;;;;8.10;7.30;;;;;;;;;;5110745;28;20199;-80
2022/08/14 12:15:43;;;;;;;8.47;6.60;;;;;;;;;;5111039;28;20234;-79
2022/08/14 12:18:11;;;;;;;7.93;6.73;;;;;;;;;;5110564;28;20199;-80
2022/08/14 12:20:41;;;;;;;7.50;6.77;;;;;;;;;;5110950;28;20195;-79
2022/08/14 12:23:21;;;;;;;7.10;6.50;;;;;;;;;;5110738;28;20196;-80
2022/08/14 12:25:50;;;;;;;7.70;6.03;;;;;;;;;;5110760;28;20198;-80
2022/08/14 12:28:17;;;;;;;6.83;6.23;;;;;;;;;;5110910;28;20187;-80
2022/08/14 12:30:49;;;;;;;6.63;6.13;;;;;;;;;;5110757;28;20200;-81
2022/08/14 12:33:24;;;;;;;7.13;6.43;;;;;;;;;;5110502;28;20195;-81
2022/08/14 12:35:51;;;;;;;6.73;6.20;;;;;;;;;;5110803;28;20278;-80
2022/08/14 12:38:18;;;;;;;6.03;5.53;;;;;;;;;;5110642;28;20199;-81
2022/08/14 12:40:47;;;;;;;7.30;6.70;;;;;;;;;;5110972;28;20200;-81
2022/08/14 12:43:14;;;;;;;7.47;6.83;;;;;;;;;;5114475;28;20244;-81
2022/08/14 12:45:50;;;;;;;7.47;6.77;;;;;;;;;;5114544;28;20279;-80
2022/08/14 12:48:18;;;;;;;8.47;7.57;;;;;;;;;;5114230;28;20195;-80
2022/08/14 12:50:45;;;;;;;7.53;6.83;;;;;;;;;;5114951;28;20248;-80
2022/08/14 12:53:13;;;;;;;7.13;6.43;;;;;;;;;;5114390;28;20203;-81
2022/08/14 12:55:41;;;;;;;7.80;7.10;;;;;;;;;;5114011;28;20716;-80
2022/08/14 12:58:09;;;;;;;7.20;6.50;;;;;;;;;;5114143;28;20269;-80
2022/08/14 13:00:37;;;;;;;7.47;6.87;;;;;;;;;;5113877;28;20246;-80
2022/08/14 13:03:05;;;;;;;8.03;6.43;;;;;;;;;;5114479;28;20207;-80
2022/08/14 13:05:34;;;;;;;6.90;6.20;;;;;;;;;;5114009;28;20195;-80
2022/08/14 13:08:05;;;;;;;7.07;6.17;;;;;;;;;;5113984;28;20199;-81
2022/08/14 13:10:33;;;;;;;6.97;6.37;;;;;;;;;;5113939;28;20232;-80
2022/08/14 13:13:02;;;;;;;7.70;7.00;;;;;;;;;;5109121;28;20262;-80
2022/08/14 13:15:29;;;;;;;7.63;7.00;;;;;;;;;;5104745;28;20310;-80
2022/08/14 13:17:56;;;;;;;7.20;6.50;;;;;;;;;;5113556;28;20208;-81
2022/08/14 13:20:26;;;;;;;7.03;6.33;;;;;;;;;;5113996;28;20229;-80
2022/08/14 13:22:54;;;;;;;7.47;6.77;;;;;;;;;;5095904;28;20302;-81
2022/08/14 13:25:23;;;;;;;10.43;6.50;;;;;;;;;;5113773;28;20196;-81
2022/08/14 13:27:53;;;;;;;6.57;6.03;;;;;;;;;;5113709;28;20231;-80
2022/08/14 13:30:22;;;;;;;7.83;6.23;;;;;;;;;;5113390;28;20682;-81
2022/08/14 13:32:49;;;;;;;6.60;6.00;;;;;;;;;;5113880;28;20192;-80
2022/08/14 13:35:17;;;;;;;8.00;6.50;;;;;;;;;;5113443;28;20227;-82
2022/08/14 13:37:48;;;;;;;7.23;6.63;;;;;;;;;;5113276;28;20203;-80
2022/08/14 13:40:16;;;;;;;7.30;6.60;;;;;;;;;;5113276;28;20212;-82
2022/08/14 13:42:44;;;;;;;6.83;6.23;;;;;;;;;;5113209;28;20581;-83
2022/08/14 13:45:13;;;;;;;7.07;6.47;;;;;;;;;;5113347;28;20199;-82
2022/08/14 13:47:41;;;;;;;6.50;5.87;;;;;;;;;;5113372;28;20195;-82
2022/08/14 13:50:10;;;;;;;6.67;6.07;;;;;;;;;;5113309;28;20195;-81
2022/08/14 13:52:42;;;;;;;7.80;6.13;;;;;;;;;;5112290;28;20192;-81
2022/08/14 13:55:10;;;;;;;7.40;6.73;;;;;;;;;;5111879;28;20223;-80
2022/08/14 13:57:44;;;;;;;6.80;6.30;;;;;;;;;;5112952;28;20233;-80
2022/08/14 14:00:13;;;;;;;8.47;7.50;;;;;;;;;;5113288;28;20255;-80
2022/08/14 14:02:42;;;;;;;6.90;6.27;;;;;;;;;;5113150;28;20187;-80
2022/08/14 14:05:20;;;;;;;6.87;6.23;;;;;;;;;;5112966;28;20599;-80
2022/08/14 14:07:58;;;;;;;8.23;7.47;;;;;;;;;;5112639;28;20222;-83
2022/08/14 14:10:28;;;;;;;7.70;6.87;;;;;;;;;;5112659;28;20195;-81
2022/08/14 14:12:58;;;;;;;8.07;7.33;;;;;;;;;;5112946;28;20206;-83
2022/08/14 14:21:45;;;;;;;11.30;7.37;;;;;;;;;;5030655;28;20560;-80
2022/08/14 14:24:23;;;;;;;8.40;6.83;;;;;;;;;;5049803;28;20201;-79
2022/08/14 14:27:16;;;;;;;8.47;7.53;;;;;;;;;;5037428;28;20647;-80
2022/08/14 14:29:46;;;;;;;8.90;6.83;;;;;;;;;;5049629;28;20241;-80
2022/08/14 14:32:19;;;;;;;10.90;7.50;;;;;;;;;;5049515;28;20716;-80
2022/08/14 14:41:50;;;;;;;9.50;7.10;;;;;;;;;;5049370;28;20274;-81
2022/08/14 14:44:34;;;;;;;10.80;7.30;;;;;;;;;;5049641;28;20201;-82
2022/08/14 14:47:06;;;;;;;11.40;7.37;;;;;;;;;;5048692;28;20194;-83
2022/08/14 14:49:33;;;;;;;8.40;6.30;;;;;;;;;;5049700;28;20198;-83
2022/08/14 14:52:05;;;;;;;7.80;7.00;;;;;;;;;;5049108;28;20235;-83
2022/08/14 14:54:45;;;;;;;8.27;7.50;;;;;;;;;;5049367;28;20217;-83
2022/08/14 14:57:13;;;;;;;6.90;6.20;;;;;;;;;;5049139;28;20285;-84
2022/08/14 14:59:42;;;;;;;6.27;5.77;;;;;;;;;;5048816;28;20809;-83
2022/08/14 15:02:14;;;;;;;6.13;5.53;;;;;;;;;;5049314;28;20244;-83
2022/08/14 15:04:41;;;;;;;6.40;5.10;;;;;;;;;;5048756;28;20197;-82
2022/08/14 15:07:10;;;;;;;4.93;4.43;;;;;;;;;;5049100;28;20205;-83
2022/08/14 15:09:38;;;;;;;4.20;3.90;;;;;;;;;;5049098;28;20190;-83
2022/08/14 15:12:05;;;;;;;5.60;5.10;;;;;;;;;;5048716;28;20232;-84
2022/08/14 15:14:32;;;;;;;4.80;4.43;;;;;;;;;;5053677;28;20220;-84
2022/08/14 15:17:02;;;;;;;6.43;4.80;;;;;;;;;;5071151;28;20197;-85
2022/08/14 15:19:30;;;;;;;5.27;4.77;;;;;;;;;;5070773;28;20197;-83